Terminal Aerodrome Forecast
Issued by NWS

Home | Current Version | Previous Version | Text Only | Print | Product List | Glossary On
Versions: 1 2 3 4 5 6 7 8 9 10 11 12
519
FTUS46 KSTO 261122
TAFSAC
TAF
KSAC 261122Z 2612/2712 VRB04KT P6SM FEW250
     FM262000 22010G16KT P6SM SCT150 BKN200
     FM270400 21008KT P6SM VCSH BKN040=

USA.gov is the U.S. government's official web portal to all federal, state and local government web resources and services.